Time;durP1;ratioP1;P1;durP2;ratioP2;P2;SDS_P1;SDS_P2;PMS_P1;PMS_P2;Temp;Humidity;BMP_temperature;BMP_pressure;BME280_temperature;BME280_humidity;BME280_pressure;Samples;Min_cycle;Max_cycle;Signal;HPM_P1;HPM_P2
2021/12/01 00:02:21;;;;;;;4.50;2.50;;;;;;;;;;769078;180;920285;-80
2021/12/01 00:04:47;;;;;;;4.40;2.90;;;;;;;;;;769219;180;919460;-79
2021/12/01 00:07:13;;;;;;;5.73;2.70;;;;;;;;;;773276;180;917923;-79
2021/12/01 00:09:38;;;;;;;4.20;2.53;;;;;;;;;;773239;180;816650;-81
2021/12/01 00:12:05;;;;;;;7.70;3.80;;;;;;;;;;771265;180;816623;-81
2021/12/01 00:14:31;;;;;;;3.77;2.27;;;;;;;;;;772259;180;1021379;-80
2021/12/01 00:16:56;;;;;;;5.37;2.47;;;;;;;;;;769946;180;918250;-79
2021/12/01 00:19:22;;;;;;;4.20;2.83;;;;;;;;;;770410;180;816334;-80
2021/12/01 00:21:48;;;;;;;4.47;3.13;;;;;;;;;;766992;180;893141;-83
2021/12/01 00:24:14;;;;;;;4.83;2.20;;;;;;;;;;772447;180;816050;-81
2021/12/01 00:26:40;;;;;;;3.07;1.93;;;;;;;;;;766434;180;918351;-84
2021/12/01 00:29:06;;;;;;;4.20;2.50;;;;;;;;;;767433;181;813547;-80
2021/12/01 00:31:31;;;;;;;3.90;2.80;;;;;;;;;;775895;180;918458;-83
2021/12/01 00:33:57;;;;;;;7.90;2.50;;;;;;;;;;769170;180;902667;-81
2021/12/01 00:36:23;;;;;;;4.20;2.47;;;;;;;;;;766528;180;913431;-82
2021/12/01 00:38:49;;;;;;;3.80;2.80;;;;;;;;;;769172;180;1089185;-82
2021/12/01 00:41:15;;;;;;;6.97;3.13;;;;;;;;;;767980;180;1122002;-81
2021/12/01 00:43:41;;;;;;;3.73;2.43;;;;;;;;;;762312;180;930700;-80
2021/12/01 00:46:13;;;;;;;3.97;2.73;;;;;;;;;;767942;180;1021255;-83
2021/12/01 00:48:35;;;;;;;4.93;2.80;;;;;;;;;;776498;180;919266;-80
2021/12/01 00:51:01;;;;;;;3.37;2.30;;;;;;;;;;768434;181;936599;-80
2021/12/01 00:53:27;;;;;;;4.93;3.00;;;;;;;;;;767720;180;919251;-80
2021/12/01 00:55:53;;;;;;;5.73;3.30;;;;;;;;;;777267;179;917219;-79
2021/12/01 00:58:18;;;;;;;5.17;3.57;;;;;;;;;;772407;180;918629;-78
2021/12/01 01:00:44;;;;;;;8.52;3.80;;;;;;;;;;767127;180;918750;-78
2021/12/01 01:03:11;;;;;;;5.70;3.10;;;;;;;;;;769464;180;919761;-76
2021/12/01 01:05:36;;;;;;;4.67;2.87;;;;;;;;;;771753;179;1015927;-77
2021/12/01 01:08:02;;;;;;;8.80;3.00;;;;;;;;;;764266;181;918615;-76
2021/12/01 01:10:45;;;;;;;5.10;2.33;;;;;;;;;;770911;181;918616;-77
2021/12/01 01:18:06;;;;;;;8.20;3.10;;;;;;;;;;771563;180;918707;-77
2021/12/01 01:20:29;;;;;;;5.37;3.07;;;;;;;;;;770915;180;918472;-77
2021/12/01 01:22:55;;;;;;;5.20;2.93;;;;;;;;;;774431;180;893647;-75
2021/12/01 01:25:21;;;;;;;4.10;2.80;;;;;;;;;;769258;180;919384;-76
2021/12/01 01:27:47;;;;;;;4.50;2.70;;;;;;;;;;771944;180;918544;-75
2021/12/01 01:30:14;;;;;;;4.93;3.35;;;;;;;;;;769909;180;919791;-75
2021/12/01 01:32:39;;;;;;;4.37;2.77;;;;;;;;;;777056;180;918152;-75
2021/12/01 01:35:06;;;;;;;5.60;3.10;;;;;;;;;;772421;180;918705;-76
2021/12/01 01:37:32;;;;;;;3.50;2.40;;;;;;;;;;766619;180;1020794;-75
2021/12/01 01:39:57;;;;;;;4.30;2.70;;;;;;;;;;777560;180;918482;-75
2021/12/01 01:42:23;;;;;;;9.13;3.00;;;;;;;;;;760223;179;919021;-74
2021/12/01 01:44:49;;;;;;;5.55;2.72;;;;;;;;;;762519;181;918839;-74
2021/12/01 01:47:15;;;;;;;9.73;3.60;;;;;;;;;;775898;180;920415;-74
2021/12/01 01:49:51;;;;;;;4.10;3.23;;;;;;;;;;770000;180;919063;-75
2021/12/01 01:52:09;;;;;;;6.63;3.23;;;;;;;;;;767726;180;918080;-75
2021/12/01 01:54:35;;;;;;;8.40;2.87;;;;;;;;;;769961;180;918638;-75
2021/12/01 01:57:01;;;;;;;5.33;3.53;;;;;;;;;;769883;181;813849;-76
2021/12/01 01:59:27;;;;;;;8.60;3.33;;;;;;;;;;766884;181;918696;-74
2021/12/01 02:02:01;;;;;;;7.37;3.33;;;;;;;;;;768241;181;919100;-73
2021/12/01 02:04:28;;;;;;;8.53;3.00;;;;;;;;;;774399;180;919729;-73
2021/12/01 02:06:53;;;;;;;4.50;2.63;;;;;;;;;;755708;180;915203;-73
2021/12/01 02:09:19;;;;;;;9.63;3.70;;;;;;;;;;765671;180;916301;-72
2021/12/01 02:11:44;;;;;;;10.17;3.27;;;;;;;;;;765710;180;1017637;-71
2021/12/01 02:14:10;;;;;;;4.85;3.67;;;;;;;;;;777250;179;919713;-71
2021/12/01 02:16:37;;;;;;;7.17;2.83;;;;;;;;;;772331;180;920928;-71
2021/12/01 02:19:02;;;;;;;7.70;3.50;;;;;;;;;;770710;180;919387;-70
2021/12/01 02:21:28;;;;;;;10.93;3.08;;;;;;;;;;777515;180;918810;-71
2021/12/01 02:23:55;;;;;;;10.50;2.07;;;;;;;;;;766491;181;919098;-69
2021/12/01 02:26:20;;;;;;;5.85;1.85;;;;;;;;;;764867;180;919326;-70
2021/12/01 02:28:46;;;;;;;8.53;2.53;;;;;;;;;;776743;180;918497;-70
2021/12/01 02:31:12;;;;;;;10.13;2.60;;;;;;;;;;767229;180;1021718;-68
2021/12/01 02:33:38;;;;;;;12.95;3.15;;;;;;;;;;768985;180;919204;-68
2021/12/01 02:36:06;;;;;;;11.50;3.30;;;;;;;;;;770597;180;919211;-68
2021/12/01 02:38:30;;;;;;;5.07;2.33;;;;;;;;;;770309;182;919160;-68
2021/12/01 02:40:56;;;;;;;20.37;3.50;;;;;;;;;;768958;180;919210;-67
2021/12/01 02:43:24;;;;;;;9.80;2.63;;;;;;;;;;764915;180;918830;-67
2021/12/01 02:45:48;;;;;;;4.93;2.33;;;;;;;;;;777995;180;918931;-67
2021/12/01 02:48:14;;;;;;;4.10;2.20;;;;;;;;;;768969;179;919498;-67
2021/12/01 02:50:40;;;;;;;7.60;2.30;;;;;;;;;;768593;180;919704;-67
2021/12/01 02:53:06;;;;;;;23.33;4.83;;;;;;;;;;771342;182;919513;-68
2021/12/01 02:55:31;;;;;;;6.67;2.57;;;;;;;;;;767654;180;919200;-67
2021/12/01 02:57:59;;;;;;;7.60;2.97;;;;;;;;;;763233;180;919050;-67
2021/12/01 03:00:23;;;;;;;8.77;2.25;;;;;;;;;;767615;180;918895;-66
2021/12/01 03:02:49;;;;;;;6.40;2.70;;;;;;;;;;767421;181;918886;-67
2021/12/01 03:05:15;;;;;;;10.80;2.83;;;;;;;;;;752102;180;919642;-67
2021/12/01 03:07:41;;;;;;;9.40;2.55;;;;;;;;;;764332;180;945829;-69
2021/12/01 03:10:07;;;;;;;5.33;1.90;;;;;;;;;;776678;180;919378;-67
2021/12/01 03:12:33;;;;;;;6.40;2.17;;;;;;;;;;768953;181;919684;-67
2021/12/01 03:14:59;;;;;;;5.20;2.33;;;;;;;;;;766636;181;918908;-67
2021/12/01 03:17:26;;;;;;;7.70;2.80;;;;;;;;;;772902;179;919273;-67
2021/12/01 03:19:52;;;;;;;4.50;2.27;;;;;;;;;;770702;179;919625;-67
2021/12/01 03:22:18;;;;;;;12.83;3.13;;;;;;;;;;772735;180;918687;-67
2021/12/01 03:24:44;;;;;;;9.57;2.60;;;;;;;;;;766808;181;919224;-67
2021/12/01 03:27:10;;;;;;;16.13;3.03;;;;;;;;;;770897;180;919617;-67
2021/12/01 03:29:36;;;;;;;8.97;2.97;;;;;;;;;;763865;181;919217;-67
2021/12/01 03:32:02;;;;;;;8.23;2.60;;;;;;;;;;768915;181;922947;-66
2021/12/01 03:34:27;;;;;;;8.20;2.90;;;;;;;;;;777275;180;918924;-67
2021/12/01 03:36:53;;;;;;;9.27;3.00;;;;;;;;;;769191;179;919293;-67
2021/12/01 03:39:19;;;;;;;7.23;2.00;;;;;;;;;;764128;181;919188;-67
2021/12/01 03:41:45;;;;;;;8.60;2.50;;;;;;;;;;775128;180;918860;-67
2021/12/01 03:44:11;;;;;;;10.80;2.47;;;;;;;;;;767975;180;919284;-66
2021/12/01 03:46:36;;;;;;;3.80;1.70;;;;;;;;;;769275;180;920772;-67
2021/12/01 03:49:03;;;;;;;10.30;2.80;;;;;;;;;;773958;180;918516;-66
2021/12/01 03:51:29;;;;;;;5.50;2.60;;;;;;;;;;769262;179;919019;-67
2021/12/01 03:53:54;;;;;;;9.77;4.43;;;;;;;;;;765168;180;918726;-67
2021/12/01 03:56:21;;;;;;;7.07;2.53;;;;;;;;;;764425;180;1019387;-66
2021/12/01 03:58:46;;;;;;;7.60;2.10;;;;;;;;;;772929;180;916487;-66
2021/12/01 04:01:12;;;;;;;9.47;2.23;;;;;;;;;;769235;180;918941;-66
2021/12/01 04:03:39;;;;;;;6.17;2.60;;;;;;;;;;770656;180;919789;-66
2021/12/01 04:06:05;;;;;;;7.07;2.77;;;;;;;;;;771043;180;919618;-66
2021/12/01 04:08:31;;;;;;;7.68;2.12;;;;;;;;;;768224;180;919438;-66
2021/12/01 04:10:57;;;;;;;9.47;2.07;;;;;;;;;;769761;180;919682;-66
2021/12/01 04:13:22;;;;;;;5.80;2.20;;;;;;;;;;772802;180;921495;-66
2021/12/01 04:15:48;;;;;;;8.60;2.83;;;;;;;;;;759005;179;919109;-67
2021/12/01 04:18:14;;;;;;;12.83;3.70;;;;;;;;;;764043;181;919144;-66
2021/12/01 04:20:41;;;;;;;11.63;2.27;;;;;;;;;;768710;180;919042;-67
2021/12/01 04:23:07;;;;;;;7.60;2.30;;;;;;;;;;774124;179;915629;-66
2021/12/01 04:25:33;;;;;;;5.00;2.80;;;;;;;;;;764538;180;915905;-67
2021/12/01 04:27:59;;;;;;;7.37;2.90;;;;;;;;;;766462;180;919244;-67
2021/12/01 04:30:26;;;;;;;7.50;2.33;;;;;;;;;;776565;179;916154;-67
2021/12/01 04:32:51;;;;;;;4.67;2.00;;;;;;;;;;770074;180;921039;-67
2021/12/01 04:35:18;;;;;;;7.80;4.30;;;;;;;;;;770999;180;922048;-67
2021/12/01 04:37:42;;;;;;;7.90;2.37;;;;;;;;;;777514;180;919908;-66
2021/12/01 04:40:08;;;;;;;5.03;2.87;;;;;;;;;;776090;179;920494;-66
2021/12/01 04:42:34;;;;;;;7.40;2.50;;;;;;;;;;769180;180;920932;-67
2021/12/01 04:45:02;;;;;;;4.10;2.17;;;;;;;;;;765774;179;918794;-67
2021/12/01 04:47:30;;;;;;;11.57;2.90;;;;;;;;;;772963;179;1020401;-67
2021/12/01 04:49:54;;;;;;;20.00;3.20;;;;;;;;;;769901;180;913369;-66
2021/12/01 04:52:20;;;;;;;15.57;4.83;;;;;;;;;;769405;180;914368;-67
2021/12/01 04:54:46;;;;;;;12.23;4.82;;;;;;;;;;771722;180;915801;-67
2021/12/01 04:57:12;;;;;;;8.90;3.23;;;;;;;;;;774396;179;632538;-67
2021/12/01 04:59:37;;;;;;;5.23;2.63;;;;;;;;;;768970;180;1051770;-67
2021/12/01 05:02:04;;;;;;;9.80;3.40;;;;;;;;;;770831;180;919265;-67
2021/12/01 05:04:29;;;;;;;9.40;4.67;;;;;;;;;;770178;180;919299;-67
2021/12/01 05:06:55;;;;;;;14.60;5.20;;;;;;;;;;772318;180;919004;-67
2021/12/01 05:09:21;;;;;;;13.33;4.27;;;;;;;;;;767634;180;918950;-66
2021/12/01 05:11:47;;;;;;;14.53;4.20;;;;;;;;;;773796;180;919270;-67
2021/12/01 05:14:13;;;;;;;8.17;3.93;;;;;;;;;;770089;180;919744;-67
2021/12/01 05:16:39;;;;;;;10.43;4.87;;;;;;;;;;767991;180;923629;-66
2021/12/01 05:19:05;;;;;;;10.83;4.67;;;;;;;;;;774618;180;918887;-66
2021/12/01 05:21:31;;;;;;;10.73;4.90;;;;;;;;;;772209;180;713209;-66
2021/12/01 05:23:57;;;;;;;9.30;5.10;;;;;;;;;;767409;180;921840;-66
2021/12/01 05:26:23;;;;;;;9.03;4.40;;;;;;;;;;770796;180;920335;-66
2021/12/01 05:28:49;;;;;;;14.10;4.47;;;;;;;;;;768569;180;945552;-67
2021/12/01 05:31:14;;;;;;;12.70;4.30;;;;;;;;;;767994;180;1017357;-67
2021/12/01 05:33:41;;;;;;;12.07;4.50;;;;;;;;;;768476;180;920796;-66
2021/12/01 05:36:06;;;;;;;15.13;4.80;;;;;;;;;;776945;180;916144;-66
2021/12/01 05:38:32;;;;;;;12.90;3.77;;;;;;;;;;769029;179;919481;-66
2021/12/01 05:40:58;;;;;;;9.83;4.90;;;;;;;;;;768260;178;919584;-66
2021/12/01 05:43:24;;;;;;;7.10;4.73;;;;;;;;;;774576;180;919580;-67
2021/12/01 05:45:50;;;;;;;9.87;4.20;;;;;;;;;;772357;180;633501;-67
2021/12/01 05:48:15;;;;;;;13.67;4.80;;;;;;;;;;774615;180;635003;-66
2021/12/01 05:50:41;;;;;;;15.30;5.87;;;;;;;;;;778672;180;634629;-66
2021/12/01 05:53:07;;;;;;;14.23;4.93;;;;;;;;;;772448;180;635077;-67
2021/12/01 05:55:33;;;;;;;12.23;4.90;;;;;;;;;;767783;180;919312;-65
2021/12/01 05:57:59;;;;;;;8.57;3.87;;;;;;;;;;766442;180;919543;-66
2021/12/01 06:00:25;;;;;;;10.93;4.00;;;;;;;;;;760157;183;923883;-65
2021/12/01 06:02:52;;;;;;;11.43;5.18;;;;;;;;;;770076;180;919557;-66
2021/12/01 06:05:17;;;;;;;12.10;4.70;;;;;;;;;;766362;180;919812;-66
2021/12/01 06:07:43;;;;;;;13.03;4.80;;;;;;;;;;775130;179;918813;-66
2021/12/01 06:10:09;;;;;;;10.77;6.47;;;;;;;;;;764881;180;919225;-66
2021/12/01 06:12:34;;;;;;;19.90;6.97;;;;;;;;;;767954;180;919116;-66
2021/12/01 06:15:01;;;;;;;12.97;7.00;;;;;;;;;;774461;180;919592;-66
2021/12/01 06:17:26;;;;;;;16.40;6.97;;;;;;;;;;769792;181;920275;-66
2021/12/01 06:19:53;;;;;;;10.50;6.90;;;;;;;;;;767500;180;917390;-66
2021/12/01 06:22:19;;;;;;;19.35;7.75;;;;;;;;;;773186;181;919203;-65
2021/12/01 06:24:44;;;;;;;15.00;7.27;;;;;;;;;;770923;180;919490;-66
2021/12/01 06:27:11;;;;;;;14.40;7.60;;;;;;;;;;768646;180;920130;-65
2021/12/01 06:29:36;;;;;;;13.82;6.62;;;;;;;;;;768880;180;923509;-65
2021/12/01 06:32:02;;;;;;;14.80;7.70;;;;;;;;;;773560;180;919215;-66
2021/12/01 06:34:28;;;;;;;10.90;6.73;;;;;;;;;;765638;179;920669;-66
2021/12/01 06:36:54;;;;;;;14.37;7.40;;;;;;;;;;767975;180;918838;-65
2021/12/01 06:39:20;;;;;;;14.33;7.40;;;;;;;;;;774318;180;918492;-65
2021/12/01 06:41:45;;;;;;;17.50;8.20;;;;;;;;;;770765;180;918457;-65
2021/12/01 06:44:11;;;;;;;18.17;8.30;;;;;;;;;;770897;180;919727;-65
2021/12/01 06:46:37;;;;;;;29.93;9.63;;;;;;;;;;771466;180;919023;-64
2021/12/01 06:49:03;;;;;;;16.03;9.30;;;;;;;;;;771375;180;918156;-64
2021/12/01 06:51:29;;;;;;;18.73;10.47;;;;;;;;;;766048;180;920300;-65
2021/12/01 06:53:55;;;;;;;16.77;9.40;;;;;;;;;;768875;179;919019;-65
2021/12/01 06:56:21;;;;;;;15.87;9.67;;;;;;;;;;776006;180;919749;-65
2021/12/01 06:58:46;;;;;;;13.00;8.60;;;;;;;;;;771913;180;915772;-65
2021/12/01 07:01:12;;;;;;;15.70;8.90;;;;;;;;;;770797;180;916978;-65
2021/12/01 07:03:38;;;;;;;16.13;8.90;;;;;;;;;;775073;180;917317;-66
2021/12/01 07:06:04;;;;;;;19.67;9.17;;;;;;;;;;767499;180;919270;-63
2021/12/01 07:08:30;;;;;;;13.50;8.80;;;;;;;;;;768253;180;919098;-65
2021/12/01 07:10:56;;;;;;;13.70;7.87;;;;;;;;;;772160;180;919010;-64
2021/12/01 07:13:21;;;;;;;21.60;8.47;;;;;;;;;;767183;180;919238;-65
2021/12/01 07:15:47;;;;;;;14.20;7.83;;;;;;;;;;768786;180;919190;-66
2021/12/01 07:18:13;;;;;;;13.17;7.10;;;;;;;;;;772292;180;919326;-66
2021/12/01 07:20:39;;;;;;;13.77;7.80;;;;;;;;;;773207;180;918454;-66
2021/12/01 07:23:05;;;;;;;14.70;7.60;;;;;;;;;;769185;180;919346;-67
2021/12/01 07:25:31;;;;;;;15.93;8.03;;;;;;;;;;768591;180;919712;-67
2021/12/01 07:27:56;;;;;;;17.47;8.43;;;;;;;;;;775991;180;918894;-67
2021/12/01 07:30:22;;;;;;;13.67;8.00;;;;;;;;;;767973;181;920131;-68
2021/12/01 07:32:49;;;;;;;19.60;10.20;;;;;;;;;;769593;180;918933;-68
2021/12/01 07:35:14;;;;;;;17.98;9.18;;;;;;;;;;771143;180;939230;-68
2021/12/01 07:37:40;;;;;;;14.47;7.90;;;;;;;;;;762813;180;919546;-69
2021/12/01 07:40:06;;;;;;;15.87;9.37;;;;;;;;;;765908;180;931690;-70
2021/12/01 07:42:33;;;;;;;13.85;9.80;;;;;;;;;;772228;180;919342;-68
2021/12/01 07:44:59;;;;;;;13.73;9.10;;;;;;;;;;770519;180;919573;-70
2021/12/01 07:47:24;;;;;;;16.90;8.43;;;;;;;;;;768282;180;919304;-70
2021/12/01 07:49:50;;;;;;;20.20;9.50;;;;;;;;;;768113;180;919436;-71
2021/12/01 07:52:16;;;;;;;12.33;7.10;;;;;;;;;;772424;180;920950;-70
2021/12/01 07:54:42;;;;;;;15.83;6.67;;;;;;;;;;768336;180;919600;-71
2021/12/01 07:57:08;;;;;;;15.87;7.77;;;;;;;;;;771282;180;946309;-71
2021/12/01 07:59:34;;;;;;;13.13;7.23;;;;;;;;;;774197;180;918977;-70
2021/12/01 08:01:59;;;;;;;12.70;7.37;;;;;;;;;;772827;179;919231;-71
2021/12/01 08:04:25;;;;;;;14.53;7.57;;;;;;;;;;765150;179;919148;-72
2021/12/01 08:06:51;;;;;;;18.20;10.20;;;;;;;;;;779868;179;630924;-71
2021/12/01 08:09:17;;;;;;;17.97;10.83;;;;;;;;;;778050;180;616762;-71
2021/12/01 08:11:43;;;;;;;19.03;10.40;;;;;;;;;;775569;180;982800;-71
2021/12/01 08:14:09;;;;;;;22.73;13.53;;;;;;;;;;771394;180;914731;-71
2021/12/01 08:16:35;;;;;;;20.40;13.30;;;;;;;;;;778807;180;626886;-71
2021/12/01 08:19:00;;;;;;;16.27;9.50;;;;;;;;;;772592;180;919595;-71
2021/12/01 08:21:26;;;;;;;15.83;9.13;;;;;;;;;;765574;180;917960;-70
2021/12/01 08:23:52;;;;;;;24.27;9.43;;;;;;;;;;774079;180;919055;-69
2021/12/01 08:26:18;;;;;;;14.40;5.97;;;;;;;;;;769158;180;923844;-69
2021/12/01 08:28:46;;;;;;;7.57;5.03;;;;;;;;;;772411;178;915967;-70
2021/12/01 08:31:11;;;;;;;8.67;5.17;;;;;;;;;;775531;180;919298;-70
2021/12/01 08:33:36;;;;;;;7.40;5.10;;;;;;;;;;774889;180;919802;-69
2021/12/01 08:36:02;;;;;;;11.87;5.53;;;;;;;;;;771723;180;919449;-68
2021/12/01 08:38:28;;;;;;;9.27;6.03;;;;;;;;;;769187;180;1021156;-69
2021/12/01 08:40:54;;;;;;;10.27;5.65;;;;;;;;;;777594;180;918664;-69
2021/12/01 08:43:20;;;;;;;9.10;4.93;;;;;;;;;;772322;180;919455;-69
2021/12/01 08:45:46;;;;;;;10.80;5.72;;;;;;;;;;769452;180;1020059;-69
2021/12/01 08:48:12;;;;;;;8.60;6.17;;;;;;;;;;773523;180;1021236;-68
2021/12/01 08:50:37;;;;;;;14.23;6.83;;;;;;;;;;771013;180;919920;-69
2021/12/01 08:53:03;;;;;;;13.80;7.17;;;;;;;;;;770889;180;1021806;-69
2021/12/01 08:55:29;;;;;;;8.63;6.20;;;;;;;;;;775138;180;918571;-68
2021/12/01 08:57:55;;;;;;;8.77;5.67;;;;;;;;;;768822;180;919816;-69
2021/12/01 09:00:21;;;;;;;9.50;6.20;;;;;;;;;;764387;180;918958;-69
2021/12/01 09:02:47;;;;;;;8.23;5.83;;;;;;;;;;768931;180;917886;-69
2021/12/01 09:05:13;;;;;;;9.55;6.28;;;;;;;;;;771490;181;919278;-69
2021/12/01 09:07:38;;;;;;;12.10;6.47;;;;;;;;;;768397;180;919391;-70
2021/12/01 09:10:05;;;;;;;8.33;6.20;;;;;;;;;;769559;180;919457;-68
2021/12/01 09:12:30;;;;;;;9.63;5.97;;;;;;;;;;769140;182;919011;-68
2021/12/01 09:14:57;;;;;;;8.43;6.23;;;;;;;;;;767083;180;919591;-67
2021/12/01 09:17:22;;;;;;;9.93;6.80;;;;;;;;;;764939;180;929459;-68
2021/12/01 09:19:48;;;;;;;9.40;6.17;;;;;;;;;;772489;180;917207;-69
2021/12/01 09:22:14;;;;;;;8.60;6.03;;;;;;;;;;770101;180;919973;-68
2021/12/01 09:24:40;;;;;;;10.80;7.13;;;;;;;;;;770225;180;920453;-69
2021/12/01 09:27:06;;;;;;;9.50;6.17;;;;;;;;;;772828;179;919416;-69
2021/12/01 09:29:32;;;;;;;9.07;6.40;;;;;;;;;;766885;179;941703;-69
2021/12/01 09:31:57;;;;;;;7.73;5.83;;;;;;;;;;768585;180;918952;-69
2021/12/01 09:34:23;;;;;;;8.17;6.07;;;;;;;;;;767461;180;919093;-68
2021/12/01 09:36:49;;;;;;;9.37;5.80;;;;;;;;;;771881;180;919276;-69
2021/12/01 09:39:15;;;;;;;7.40;5.70;;;;;;;;;;771995;180;919432;-68
2021/12/01 09:41:41;;;;;;;5.70;4.50;;;;;;;;;;772603;180;919204;-68
2021/12/01 09:44:07;;;;;;;7.90;6.43;;;;;;;;;;767544;181;919408;-69
2021/12/01 09:46:33;;;;;;;7.93;5.63;;;;;;;;;;770039;180;919488;-69
2021/12/01 09:48:59;;;;;;;7.27;5.40;;;;;;;;;;769837;180;912977;-69
2021/12/01 09:51:25;;;;;;;7.77;6.40;;;;;;;;;;775639;180;919078;-70
2021/12/01 09:53:52;;;;;;;6.57;4.43;;;;;;;;;;770980;180;919707;-70
2021/12/01 09:56:17;;;;;;;6.80;4.63;;;;;;;;;;771109;180;915300;-70
2021/12/01 09:58:43;;;;;;;6.03;4.40;;;;;;;;;;768719;180;915794;-69
2021/12/01 10:01:09;;;;;;;5.13;3.67;;;;;;;;;;776587;179;922159;-69
2021/12/01 10:03:35;;;;;;;5.53;4.40;;;;;;;;;;759255;181;915206;-69
2021/12/01 10:06:10;;;;;;;4.37;3.50;;;;;;;;;;769787;181;919323;-70
2021/12/01 10:08:34;;;;;;;6.97;4.60;;;;;;;;;;776060;180;915220;-71
2021/12/01 10:10:59;;;;;;;5.10;3.80;;;;;;;;;;760026;180;919033;-69
2021/12/01 10:13:25;;;;;;;6.47;3.93;;;;;;;;;;766200;180;918060;-70
2021/12/01 10:15:51;;;;;;;6.47;4.13;;;;;;;;;;767751;180;918306;-69
2021/12/01 10:18:16;;;;;;;5.43;4.30;;;;;;;;;;772061;180;921195;-69
2021/12/01 10:20:43;;;;;;;7.00;4.47;;;;;;;;;;763652;180;920059;-69
2021/12/01 10:23:08;;;;;;;6.77;4.10;;;;;;;;;;765060;180;1028116;-68
2021/12/01 10:25:35;;;;;;;3.50;2.90;;;;;;;;;;768591;180;919616;-68
2021/12/01 10:28:01;;;;;;;6.10;3.77;;;;;;;;;;774268;177;919486;-68
2021/12/01 10:30:32;;;;;;;6.33;4.17;;;;;;;;;;771388;180;919658;-68
2021/12/01 10:33:05;;;;;;;3.90;2.80;;;;;;;;;;766797;179;917863;-67
2021/12/01 10:35:31;;;;;;;3.73;2.70;;;;;;;;;;775813;180;918715;-68
2021/12/01 10:37:57;;;;;;;3.37;2.13;;;;;;;;;;765830;179;917534;-68
2021/12/01 10:40:24;;;;;;;3.70;1.90;;;;;;;;;;769004;181;919324;-67
2021/12/01 10:42:51;;;;;;;2.75;2.12;;;;;;;;;;770871;180;922182;-66
2021/12/01 10:45:17;;;;;;;3.70;2.40;;;;;;;;;;767587;183;919639;-68
2021/12/01 10:47:43;;;;;;;4.50;2.73;;;;;;;;;;766788;179;919489;-67
2021/12/01 10:50:09;;;;;;;4.57;3.27;;;;;;;;;;765932;181;920481;-68
2021/12/01 10:52:36;;;;;;;4.93;2.70;;;;;;;;;;774442;180;921549;-69
2021/12/01 10:55:16;;;;;;;3.63;2.43;;;;;;;;;;771386;180;918989;-69
2021/12/01 10:57:42;;;;;;;3.70;2.40;;;;;;;;;;769096;180;919253;-69
2021/12/01 11:00:11;;;;;;;4.90;3.35;;;;;;;;;;771044;180;919483;-69
2021/12/01 11:02:37;;;;;;;5.60;3.27;;;;;;;;;;776333;180;918102;-70
2021/12/01 11:05:03;;;;;;;4.50;2.40;;;;;;;;;;762837;180;919548;-68
2021/12/01 11:07:29;;;;;;;4.57;4.10;;;;;;;;;;768200;180;919526;-68
2021/12/01 11:10:10;;;;;;;4.90;3.37;;;;;;;;;;764241;180;1063795;-69
2021/12/01 11:12:36;;;;;;;5.90;4.37;;;;;;;;;;768204;180;919378;-68
2021/12/01 11:15:08;;;;;;;7.67;4.77;;;;;;;;;;774100;180;919310;-68
2021/12/01 11:17:39;;;;;;;6.97;4.70;;;;;;;;;;760359;180;919198;-71
2021/12/01 11:20:05;;;;;;;5.73;3.50;;;;;;;;;;764150;180;919612;-69
2021/12/01 11:22:34;;;;;;;3.40;2.67;;;;;;;;;;766075;180;1019493;-70
2021/12/01 11:25:03;;;;;;;5.10;4.10;;;;;;;;;;772054;180;919730;-70
2021/12/01 11:27:29;;;;;;;5.00;4.00;;;;;;;;;;771901;180;920756;-69
2021/12/01 11:29:55;;;;;;;5.57;4.68;;;;;;;;;;762958;180;1022220;-69
2021/12/01 11:32:21;;;;;;;5.07;4.23;;;;;;;;;;768273;181;919011;-70
2021/12/01 11:34:48;;;;;;;6.40;4.93;;;;;;;;;;755366;180;919602;-69
2021/12/01 11:37:13;;;;;;;7.95;5.75;;;;;;;;;;758620;181;918969;-69
2021/12/01 11:39:38;;;;;;;6.13;5.20;;;;;;;;;;764700;178;919201;-68
2021/12/01 11:42:04;;;;;;;6.60;5.03;;;;;;;;;;770908;179;926215;-68
2021/12/01 11:44:30;;;;;;;6.40;4.93;;;;;;;;;;766568;180;921823;-68
2021/12/01 11:46:56;;;;;;;6.77;5.30;;;;;;;;;;769011;180;916281;-68
2021/12/01 11:49:24;;;;;;;7.00;6.05;;;;;;;;;;770055;181;915916;-68
2021/12/01 11:51:55;;;;;;;8.90;6.27;;;;;;;;;;765576;180;916223;-67
2021/12/01 11:54:21;;;;;;;6.80;5.37;;;;;;;;;;769462;180;913352;-67
2021/12/01 11:56:48;;;;;;;7.93;6.10;;;;;;;;;;771070;180;915753;-67
2021/12/01 11:59:22;;;;;;;6.20;4.47;;;;;;;;;;773913;180;915172;-66
2021/12/01 12:01:48;;;;;;;7.30;5.47;;;;;;;;;;762940;180;915896;-67
2021/12/01 12:04:15;;;;;;;7.17;4.73;;;;;;;;;;767926;181;919671;-67
2021/12/01 12:06:43;;;;;;;5.77;4.77;;;;;;;;;;769527;180;919083;-67
2021/12/01 12:09:09;;;;;;;5.50;4.53;;;;;;;;;;776198;180;919380;-67
2021/12/01 12:11:38;;;;;;;5.83;4.90;;;;;;;;;;765199;180;962983;-67
2021/12/01 12:14:05;;;;;;;4.82;4.20;;;;;;;;;;772256;180;919461;-67
2021/12/01 12:16:30;;;;;;;4.37;3.60;;;;;;;;;;776459;180;908233;-66
2021/12/01 12:18:58;;;;;;;3.73;3.13;;;;;;;;;;767689;180;919208;-67
2021/12/01 12:21:27;;;;;;;4.77;3.73;;;;;;;;;;765518;180;919938;-66
2021/12/01 12:23:49;;;;;;;6.03;4.53;;;;;;;;;;768914;180;919540;-65
2021/12/01 12:26:14;;;;;;;6.10;3.87;;;;;;;;;;754856;183;918697;-65
2021/12/01 12:28:40;;;;;;;8.90;4.83;;;;;;;;;;741659;185;1021559;-67
2021/12/01 12:31:06;;;;;;;4.73;3.30;;;;;;;;;;746964;185;917980;-68
2021/12/01 12:33:34;;;;;;;4.73;4.23;;;;;;;;;;735670;187;3302671;-67
2021/12/01 12:36:00;;;;;;;6.10;4.20;;;;;;;;;;772650;179;637226;-68
2021/12/01 12:38:25;;;;;;;6.30;4.50;;;;;;;;;;767800;180;919300;-68
2021/12/01 12:40:57;;;;;;;4.70;3.80;;;;;;;;;;775330;180;918639;-68
2021/12/01 12:43:23;;;;;;;6.73;4.43;;;;;;;;;;770566;180;919212;-68
2021/12/01 12:45:55;;;;;;;4.63;3.43;;;;;;;;;;767931;180;919275;-68
2021/12/01 12:48:25;;;;;;;5.53;3.93;;;;;;;;;;769284;180;919033;-67
2021/12/01 12:50:57;;;;;;;4.07;3.10;;;;;;;;;;767149;180;919249;-68
2021/12/01 12:53:24;;;;;;;3.93;2.90;;;;;;;;;;773280;180;918967;-68
2021/12/01 12:55:50;;;;;;;5.40;3.27;;;;;;;;;;767121;179;913821;-69
2021/12/01 12:58:15;;;;;;;5.30;3.73;;;;;;;;;;768953;180;919003;-67
2021/12/01 13:00:57;;;;;;;3.70;3.00;;;;;;;;;;775533;180;919095;-68
2021/12/01 13:03:24;;;;;;;3.70;3.13;;;;;;;;;;767484;181;919329;-68
2021/12/01 13:05:50;;;;;;;4.17;2.93;;;;;;;;;;765688;180;1023816;-69
2021/12/01 13:08:21;;;;;;;4.23;2.90;;;;;;;;;;769715;180;918949;-69
2021/12/01 13:10:47;;;;;;;5.80;3.10;;;;;;;;;;768743;180;921627;-68
2021/12/01 13:13:17;;;;;;;3.23;2.70;;;;;;;;;;769226;180;918937;-68
2021/12/01 13:15:41;;;;;;;3.87;2.80;;;;;;;;;;769769;179;919448;-68
2021/12/01 13:18:07;;;;;;;4.40;2.47;;;;;;;;;;764972;180;919473;-68
2021/12/01 13:20:35;;;;;;;4.03;2.33;;;;;;;;;;771216;179;919477;-68
2021/12/01 13:23:02;;;;;;;7.10;3.23;;;;;;;;;;771125;180;919413;-67
2021/12/01 13:25:28;;;;;;;5.10;3.40;;;;;;;;;;765553;180;919321;-68
2021/12/01 13:27:54;;;;;;;2.97;2.30;;;;;;;;;;767745;180;919841;-68
2021/12/01 13:30:20;;;;;;;5.12;3.17;;;;;;;;;;775133;180;919545;-68
2021/12/01 13:32:46;;;;;;;4.23;2.33;;;;;;;;;;768402;180;919836;-68
2021/12/01 13:35:11;;;;;;;5.20;2.67;;;;;;;;;;766136;180;919466;-68
2021/12/01 13:37:37;;;;;;;4.47;3.00;;;;;;;;;;774109;180;918875;-68
2021/12/01 13:40:07;;;;;;;4.27;2.80;;;;;;;;;;771255;180;919483;-68
2021/12/01 13:42:33;;;;;;;5.97;3.20;;;;;;;;;;769106;180;919535;-69
2021/12/01 13:44:59;;;;;;;5.00;2.70;;;;;;;;;;762714;181;919434;-69
2021/12/01 13:47:26;;;;;;;4.80;2.70;;;;;;;;;;773223;180;918071;-69
2021/12/01 13:49:51;;;;;;;4.00;2.90;;;;;;;;;;766848;180;919570;-69
2021/12/01 13:52:22;;;;;;;5.50;3.73;;;;;;;;;;767034;180;919502;-69
2021/12/01 13:54:48;;;;;;;4.40;2.80;;;;;;;;;;774766;180;919410;-68
2021/12/01 13:57:14;;;;;;;3.47;2.60;;;;;;;;;;767059;181;918742;-67
2021/12/01 13:59:40;;;;;;;4.10;2.97;;;;;;;;;;767659;181;919320;-68
2021/12/01 14:02:06;;;;;;;4.47;3.20;;;;;;;;;;767461;180;919081;-68
2021/12/01 14:04:31;;;;;;;4.80;3.37;;;;;;;;;;779212;179;919290;-69
2021/12/01 14:06:57;;;;;;;4.33;3.33;;;;;;;;;;768916;180;919219;-69
2021/12/01 14:09:24;;;;;;;5.33;3.47;;;;;;;;;;770770;180;919497;-68
2021/12/01 14:11:51;;;;;;;3.30;2.60;;;;;;;;;;775400;180;1009829;-68
2021/12/01 14:14:17;;;;;;;4.10;2.23;;;;;;;;;;770201;180;919920;-68
2021/12/01 14:16:47;;;;;;;3.07;2.20;;;;;;;;;;765384;180;918922;-67
2021/12/01 14:19:13;;;;;;;3.43;2.37;;;;;;;;;;768097;179;919041;-67
2021/12/01 14:21:39;;;;;;;2.57;1.60;;;;;;;;;;777317;180;919711;-68
2021/12/01 14:24:08;;;;;;;3.77;2.70;;;;;;;;;;768230;180;920882;-67
2021/12/01 14:26:37;;;;;;;3.37;2.30;;;;;;;;;;766602;180;919473;-69